sensor_id;sensor_type;location;lat;lon;timestamp;P1;durP1;ratioP1;P2;durP2;ratioP2
72569;SDS011;60594;50.204;8.844;2023-04-24T00:01:21;2.45;;;1.00;;
72569;SDS011;60594;50.204;8.844;2023-04-24T00:03:49;2.75;;;1.10;;
72569;SDS011;60594;50.204;8.844;2023-04-24T00:06:16;3.63;;;1.33;;
72569;SDS011;60594;50.204;8.844;2023-04-24T00:08:44;2.40;;;1.10;;
72569;SDS011;60594;50.204;8.844;2023-04-24T00:11:10;3.60;;;1.20;;
72569;SDS011;60594;50.204;8.844;2023-04-24T00:13:37;3.65;;;1.15;;
72569;SDS011;60594;50.204;8.844;2023-04-24T00:16:07;2.65;;;1.10;;
72569;SDS011;60594;50.204;8.844;2023-04-24T00:18:34;3.30;;;1.00;;
72569;SDS011;60594;50.204;8.844;2023-04-24T00:21:00;2.88;;;1.10;;
72569;SDS011;60594;50.204;8.844;2023-04-24T00:23:27;4.07;;;1.10;;
72569;SDS011;60594;50.204;8.844;2023-04-24T00:25:54;2.40;;;1.15;;
72569;SDS011;60594;50.204;8.844;2023-04-24T00:28:21;4.03;;;1.30;;
72569;SDS011;60594;50.204;8.844;2023-04-24T00:30:47;2.45;;;0.88;;
72569;SDS011;60594;50.204;8.844;2023-04-24T00:33:14;3.17;;;1.30;;
72569;SDS011;60594;50.204;8.844;2023-04-24T00:35:42;2.22;;;1.00;;
72569;SDS011;60594;50.204;8.844;2023-04-24T00:38:08;2.63;;;1.10;;
72569;SDS011;60594;50.204;8.844;2023-04-24T00:40:35;2.38;;;1.08;;
72569;SDS011;60594;50.204;8.844;2023-04-24T00:43:02;3.50;;;1.50;;
72569;SDS011;60594;50.204;8.844;2023-04-24T00:45:28;2.95;;;0.95;;
72569;SDS011;60594;50.204;8.844;2023-04-24T00:47:57;2.42;;;1.08;;
72569;SDS011;60594;50.204;8.844;2023-04-24T00:50:25;2.22;;;0.90;;
72569;SDS011;60594;50.204;8.844;2023-04-24T00:52:53;2.90;;;1.23;;
72569;SDS011;60594;50.204;8.844;2023-04-24T00:55:20;2.83;;;1.10;;
72569;SDS011;60594;50.204;8.844;2023-04-24T00:57:47;2.17;;;1.08;;
72569;SDS011;60594;50.204;8.844;2023-04-24T01:00:15;3.28;;;1.80;;
72569;SDS011;60594;50.204;8.844;2023-04-24T01:02:45;2.58;;;0.90;;
72569;SDS011;60594;50.204;8.844;2023-04-24T01:05:12;2.75;;;0.90;;
72569;SDS011;60594;50.204;8.844;2023-04-24T01:07:40;3.47;;;1.13;;
72569;SDS011;60594;50.204;8.844;2023-04-24T01:10:11;1.95;;;0.80;;
72569;SDS011;60594;50.204;8.844;2023-04-24T01:12:45;2.88;;;1.00;;
72569;SDS011;60594;50.204;8.844;2023-04-24T01:15:12;3.33;;;1.42;;
72569;SDS011;60594;50.204;8.844;2023-04-24T01:17:39;2.25;;;0.90;;
72569;SDS011;60594;50.204;8.844;2023-04-24T01:20:06;3.78;;;1.00;;
72569;SDS011;60594;50.204;8.844;2023-04-24T01:22:33;2.80;;;0.90;;
72569;SDS011;60594;50.204;8.844;2023-04-24T01:25:00;2.35;;;1.00;;
72569;SDS011;60594;50.204;8.844;2023-04-24T01:27:30;2.40;;;1.00;;
72569;SDS011;60594;50.204;8.844;2023-04-24T01:29:56;2.63;;;1.13;;
72569;SDS011;60594;50.204;8.844;2023-04-24T01:32:24;3.03;;;1.13;;
72569;SDS011;60594;50.204;8.844;2023-04-24T01:34:51;3.30;;;0.98;;
72569;SDS011;60594;50.204;8.844;2023-04-24T01:37:18;1.80;;;0.82;;
72569;SDS011;60594;50.204;8.844;2023-04-24T01:39:44;3.90;;;1.00;;
72569;SDS011;60594;50.204;8.844;2023-04-24T01:42:12;1.88;;;0.90;;
72569;SDS011;60594;50.204;8.844;2023-04-24T01:44:42;2.60;;;1.10;;
72569;SDS011;60594;50.204;8.844;2023-04-24T01:47:10;2.50;;;0.93;;
72569;SDS011;60594;50.204;8.844;2023-04-24T01:49:37;1.88;;;0.85;;
72569;SDS011;60594;50.204;8.844;2023-04-24T01:52:05;2.35;;;1.00;;
72569;SDS011;60594;50.204;8.844;2023-04-24T01:54:32;3.33;;;1.05;;
72569;SDS011;60594;50.204;8.844;2023-04-24T01:57:01;3.20;;;0.90;;
72569;SDS011;60594;50.204;8.844;2023-04-24T01:59:28;2.28;;;0.90;;
72569;SDS011;60594;50.204;8.844;2023-04-24T02:01:56;3.58;;;1.13;;
72569;SDS011;60594;50.204;8.844;2023-04-24T02:04:22;2.53;;;1.00;;
72569;SDS011;60594;50.204;8.844;2023-04-24T02:06:49;2.67;;;1.13;;
72569;SDS011;60594;50.204;8.844;2023-04-24T02:09:16;2.00;;;1.00;;
72569;SDS011;60594;50.204;8.844;2023-04-24T02:11:42;6.97;;;1.20;;
72569;SDS011;60594;50.204;8.844;2023-04-24T02:14:08;2.20;;;0.82;;
72569;SDS011;60594;50.204;8.844;2023-04-24T02:16:35;2.45;;;1.85;;
72569;SDS011;60594;50.204;8.844;2023-04-24T02:19:03;3.80;;;1.65;;
72569;SDS011;60594;50.204;8.844;2023-04-24T02:21:34;3.47;;;1.20;;
72569;SDS011;60594;50.204;8.844;2023-04-24T02:24:01;2.38;;;0.95;;
72569;SDS011;60594;50.204;8.844;2023-04-24T02:26:31;2.75;;;1.00;;
72569;SDS011;60594;50.204;8.844;2023-04-24T02:28:57;2.22;;;0.90;;
72569;SDS011;60594;50.204;8.844;2023-04-24T02:31:24;2.38;;;1.02;;
72569;SDS011;60594;50.204;8.844;2023-04-24T02:33:50;3.05;;;1.23;;
72569;SDS011;60594;50.204;8.844;2023-04-24T02:36:18;1.10;;;0.68;;
72569;SDS011;60594;50.204;8.844;2023-04-24T02:38:44;2.17;;;0.80;;
72569;SDS011;60594;50.204;8.844;2023-04-24T02:41:13;3.42;;;1.05;;
72569;SDS011;60594;50.204;8.844;2023-04-24T02:43:39;3.83;;;1.02;;
72569;SDS011;60594;50.204;8.844;2023-04-24T02:46:06;4.05;;;1.10;;
72569;SDS011;60594;50.204;8.844;2023-04-24T02:48:33;2.20;;;1.05;;
72569;SDS011;60594;50.204;8.844;2023-04-24T02:51:00;3.53;;;1.08;;
72569;SDS011;60594;50.204;8.844;2023-04-24T02:53:26;3.80;;;1.10;;
72569;SDS011;60594;50.204;8.844;2023-04-24T02:55:53;4.57;;;1.10;;
72569;SDS011;60594;50.204;8.844;2023-04-24T02:58:20;2.55;;;0.90;;
72569;SDS011;60594;50.204;8.844;2023-04-24T03:00:47;1.65;;;0.70;;
72569;SDS011;60594;50.204;8.844;2023-04-24T03:03:13;3.22;;;1.10;;
72569;SDS011;60594;50.204;8.844;2023-04-24T03:05:42;2.47;;;0.90;;
72569;SDS011;60594;50.204;8.844;2023-04-24T03:08:08;3.20;;;1.30;;
72569;SDS011;60594;50.204;8.844;2023-04-24T03:10:35;3.45;;;1.00;;
72569;SDS011;60594;50.204;8.844;2023-04-24T03:13:02;2.92;;;1.00;;
72569;SDS011;60594;50.204;8.844;2023-04-24T03:15:28;2.17;;;0.95;;
72569;SDS011;60594;50.204;8.844;2023-04-24T03:17:56;2.40;;;1.08;;
72569;SDS011;60594;50.204;8.844;2023-04-24T03:20:23;2.97;;;1.10;;
72569;SDS011;60594;50.204;8.844;2023-04-24T03:22:49;2.92;;;1.00;;
72569;SDS011;60594;50.204;8.844;2023-04-24T03:25:16;3.47;;;1.60;;
72569;SDS011;60594;50.204;8.844;2023-04-24T03:27:43;2.72;;;1.00;;
72569;SDS011;60594;50.204;8.844;2023-04-24T03:30:28;2.53;;;0.90;;
72569;SDS011;60594;50.204;8.844;2023-04-24T03:32:59;3.17;;;1.25;;
72569;SDS011;60594;50.204;8.844;2023-04-24T03:35:30;3.65;;;1.00;;
72569;SDS011;60594;50.204;8.844;2023-04-24T03:38:01;10.38;;;1.60;;
72569;SDS011;60594;50.204;8.844;2023-04-24T03:40:46;4.53;;;1.02;;
72569;SDS011;60594;50.204;8.844;2023-04-24T03:43:37;2.15;;;0.85;;
72569;SDS011;60594;50.204;8.844;2023-04-24T03:46:06;4.03;;;1.15;;
72569;SDS011;60594;50.204;8.844;2023-04-24T03:48:38;2.25;;;0.90;;
72569;SDS011;60594;50.204;8.844;2023-04-24T03:51:06;3.45;;;1.20;;
72569;SDS011;60594;50.204;8.844;2023-04-24T03:53:35;2.35;;;1.30;;
72569;SDS011;60594;50.204;8.844;2023-04-24T03:56:02;3.42;;;1.30;;
72569;SDS011;60594;50.204;8.844;2023-04-24T03:58:30;3.58;;;0.98;;
72569;SDS011;60594;50.204;8.844;2023-04-24T04:00:57;2.58;;;1.10;;
72569;SDS011;60594;50.204;8.844;2023-04-24T04:03:42;2.78;;;1.20;;
72569;SDS011;60594;50.204;8.844;2023-04-24T04:06:10;3.00;;;1.10;;
72569;SDS011;60594;50.204;8.844;2023-04-24T04:08:40;2.92;;;1.30;;
72569;SDS011;60594;50.204;8.844;2023-04-24T04:11:08;2.53;;;0.95;;
72569;SDS011;60594;50.204;8.844;2023-04-24T04:13:35;5.07;;;1.40;;
72569;SDS011;60594;50.204;8.844;2023-04-24T04:16:22;2.50;;;0.90;;
72569;SDS011;60594;50.204;8.844;2023-04-24T04:18:53;2.97;;;1.10;;
72569;SDS011;60594;50.204;8.844;2023-04-24T04:21:20;5.57;;;1.20;;
72569;SDS011;60594;50.204;8.844;2023-04-24T04:23:49;2.85;;;0.90;;
72569;SDS011;60594;50.204;8.844;2023-04-24T04:26:20;4.30;;;1.00;;
72569;SDS011;60594;50.204;8.844;2023-04-24T04:29:01;4.13;;;1.70;;
72569;SDS011;60594;50.204;8.844;2023-04-24T04:31:30;2.58;;;1.27;;
72569;SDS011;60594;50.204;8.844;2023-04-24T04:34:00;2.70;;;1.08;;
72569;SDS011;60594;50.204;8.844;2023-04-24T04:36:28;2.67;;;1.10;;
72569;SDS011;60594;50.204;8.844;2023-04-24T04:39:01;2.45;;;1.02;;
72569;SDS011;60594;50.204;8.844;2023-04-24T04:41:56;3.33;;;1.27;;
72569;SDS011;60594;50.204;8.844;2023-04-24T04:44:27;2.30;;;1.10;;
72569;SDS011;60594;50.204;8.844;2023-04-24T04:46:54;3.00;;;1.20;;
72569;SDS011;60594;50.204;8.844;2023-04-24T04:49:31;3.17;;;1.10;;
72569;SDS011;60594;50.204;8.844;2023-04-24T04:51:59;2.70;;;1.13;;
72569;SDS011;60594;50.204;8.844;2023-04-24T04:54:27;2.95;;;1.30;;
72569;SDS011;60594;50.204;8.844;2023-04-24T04:56:54;3.90;;;2.05;;
72569;SDS011;60594;50.204;8.844;2023-04-24T04:59:21;2.30;;;1.10;;
72569;SDS011;60594;50.204;8.844;2023-04-24T05:01:51;3.40;;;1.33;;
72569;SDS011;60594;50.204;8.844;2023-04-24T05:04:17;2.13;;;1.13;;
72569;SDS011;60594;50.204;8.844;2023-04-24T05:06:44;2.08;;;0.90;;
72569;SDS011;60594;50.204;8.844;2023-04-24T05:09:14;2.88;;;1.30;;
72569;SDS011;60594;50.204;8.844;2023-04-24T05:11:50;2.95;;;1.45;;
72569;SDS011;60594;50.204;8.844;2023-04-24T05:14:17;3.10;;;1.10;;
72569;SDS011;60594;50.204;8.844;2023-04-24T05:16:44;3.78;;;1.55;;
72569;SDS011;60594;50.204;8.844;2023-04-24T05:19:13;2.65;;;1.20;;
72569;SDS011;60594;50.204;8.844;2023-04-24T05:21:43;2.50;;;1.10;;
72569;SDS011;60594;50.204;8.844;2023-04-24T05:24:13;2.85;;;1.20;;
72569;SDS011;60594;50.204;8.844;2023-04-24T05:27:06;3.75;;;1.95;;
72569;SDS011;60594;50.204;8.844;2023-04-24T05:29:38;2.88;;;1.35;;
72569;SDS011;60594;50.204;8.844;2023-04-24T05:32:06;2.72;;;1.30;;
72569;SDS011;60594;50.204;8.844;2023-04-24T05:34:33;2.88;;;1.30;;
72569;SDS011;60594;50.204;8.844;2023-04-24T05:37:00;3.78;;;1.50;;
72569;SDS011;60594;50.204;8.844;2023-04-24T05:39:26;3.00;;;1.27;;
72569;SDS011;60594;50.204;8.844;2023-04-24T05:41:54;6.72;;;3.53;;
72569;SDS011;60594;50.204;8.844;2023-04-24T05:44:24;6.40;;;2.08;;
72569;SDS011;60594;50.204;8.844;2023-04-24T05:46:50;3.15;;;1.27;;
72569;SDS011;60594;50.204;8.844;2023-04-24T05:49:18;3.42;;;1.33;;
72569;SDS011;60594;50.204;8.844;2023-04-24T05:51:45;3.40;;;1.63;;
72569;SDS011;60594;50.204;8.844;2023-04-24T05:54:15;3.20;;;1.50;;
72569;SDS011;60594;50.204;8.844;2023-04-24T05:56:43;3.40;;;2.05;;
72569;SDS011;60594;50.204;8.844;2023-04-24T05:59:13;3.72;;;1.80;;
72569;SDS011;60594;50.204;8.844;2023-04-24T06:01:40;3.58;;;1.88;;
72569;SDS011;60594;50.204;8.844;2023-04-24T06:04:17;3.63;;;2.00;;
72569;SDS011;60594;50.204;8.844;2023-04-24T06:06:44;4.78;;;2.35;;
72569;SDS011;60594;50.204;8.844;2023-04-24T06:09:11;3.72;;;1.70;;
72569;SDS011;60594;50.204;8.844;2023-04-24T06:11:39;3.22;;;1.55;;
72569;SDS011;60594;50.204;8.844;2023-04-24T06:14:07;6.07;;;2.28;;
72569;SDS011;60594;50.204;8.844;2023-04-24T06:16:53;4.55;;;2.38;;
72569;SDS011;60594;50.204;8.844;2023-04-24T06:19:31;3.95;;;2.15;;
72569;SDS011;60594;50.204;8.844;2023-04-24T06:21:58;3.53;;;1.67;;
72569;SDS011;60594;50.204;8.844;2023-04-24T06:24:29;4.20;;;1.70;;
72569;SDS011;60594;50.204;8.844;2023-04-24T06:26:57;2.78;;;1.40;;
72569;SDS011;60594;50.204;8.844;2023-04-24T06:29:25;5.30;;;1.83;;
72569;SDS011;60594;50.204;8.844;2023-04-24T06:31:52;3.33;;;1.58;;
72569;SDS011;60594;50.204;8.844;2023-04-24T06:34:20;3.85;;;1.90;;
72569;SDS011;60594;50.204;8.844;2023-04-24T06:36:48;5.53;;;2.20;;
72569;SDS011;60594;50.204;8.844;2023-04-24T06:39:14;4.15;;;1.83;;
72569;SDS011;60594;50.204;8.844;2023-04-24T06:41:41;3.83;;;1.85;;
72569;SDS011;60594;50.204;8.844;2023-04-24T06:44:10;4.00;;;1.88;;
72569;SDS011;60594;50.204;8.844;2023-04-24T06:46:38;5.53;;;1.85;;
72569;SDS011;60594;50.204;8.844;2023-04-24T06:49:04;3.97;;;2.45;;
72569;SDS011;60594;50.204;8.844;2023-04-24T06:51:31;4.57;;;2.17;;
72569;SDS011;60594;50.204;8.844;2023-04-24T06:54:02;4.60;;;2.00;;
72569;SDS011;60594;50.204;8.844;2023-04-24T06:56:29;4.28;;;2.20;;
72569;SDS011;60594;50.204;8.844;2023-04-24T06:58:55;4.22;;;1.92;;
72569;SDS011;60594;50.204;8.844;2023-04-24T07:01:22;5.03;;;2.50;;
72569;SDS011;60594;50.204;8.844;2023-04-24T07:03:48;5.93;;;2.20;;
72569;SDS011;60594;50.204;8.844;2023-04-24T07:06:15;5.32;;;2.40;;
72569;SDS011;60594;50.204;8.844;2023-04-24T07:08:43;4.45;;;2.20;;
72569;SDS011;60594;50.204;8.844;2023-04-24T07:11:10;5.35;;;2.20;;
72569;SDS011;60594;50.204;8.844;2023-04-24T07:13:37;4.32;;;2.20;;
72569;SDS011;60594;50.204;8.844;2023-04-24T07:16:08;4.20;;;2.05;;
72569;SDS011;60594;50.204;8.844;2023-04-24T07:18:34;4.97;;;2.20;;
72569;SDS011;60594;50.204;8.844;2023-04-24T07:21:04;3.97;;;2.40;;
72569;SDS011;60594;50.204;8.844;2023-04-24T07:23:30;4.57;;;2.22;;
72569;SDS011;60594;50.204;8.844;2023-04-24T07:26:00;4.22;;;2.50;;
72569;SDS011;60594;50.204;8.844;2023-04-24T07:28:26;3.58;;;1.85;;
72569;SDS011;60594;50.204;8.844;2023-04-24T07:30:58;3.90;;;1.65;;
72569;SDS011;60594;50.204;8.844;2023-04-24T07:33:26;4.15;;;1.52;;
72569;SDS011;60594;50.204;8.844;2023-04-24T07:35:52;4.78;;;2.25;;
72569;SDS011;60594;50.204;8.844;2023-04-24T07:38:19;3.60;;;1.83;;
72569;SDS011;60594;50.204;8.844;2023-04-24T07:40:49;3.50;;;1.20;;
72569;SDS011;60594;50.204;8.844;2023-04-24T07:43:16;3.63;;;1.98;;
72569;SDS011;60594;50.204;8.844;2023-04-24T07:45:43;4.40;;;2.08;;
72569;SDS011;60594;50.204;8.844;2023-04-24T07:48:10;4.55;;;1.95;;
72569;SDS011;60594;50.204;8.844;2023-04-24T07:50:36;4.13;;;2.00;;
72569;SDS011;60594;50.204;8.844;2023-04-24T07:53:07;4.38;;;2.20;;
72569;SDS011;60594;50.204;8.844;2023-04-24T07:55:34;3.65;;;1.70;;
72569;SDS011;60594;50.204;8.844;2023-04-24T07:58:01;3.60;;;1.88;;
72569;SDS011;60594;50.204;8.844;2023-04-24T08:00:27;4.22;;;1.70;;
72569;SDS011;60594;50.204;8.844;2023-04-24T08:02:54;5.07;;;1.98;;
72569;SDS011;60594;50.204;8.844;2023-04-24T08:05:21;4.15;;;2.00;;
72569;SDS011;60594;50.204;8.844;2023-04-24T08:07:47;3.28;;;1.60;;
72569;SDS011;60594;50.204;8.844;2023-04-24T08:10:17;4.20;;;2.00;;
72569;SDS011;60594;50.204;8.844;2023-04-24T08:12:44;4.30;;;1.95;;
72569;SDS011;60594;50.204;8.844;2023-04-24T08:15:11;2.30;;;1.35;;
72569;SDS011;60594;50.204;8.844;2023-04-24T08:17:38;3.83;;;2.00;;
72569;SDS011;60594;50.204;8.844;2023-04-24T08:20:05;3.47;;;1.90;;
72569;SDS011;60594;50.204;8.844;2023-04-24T08:22:36;3.88;;;2.00;;
72569;SDS011;60594;50.204;8.844;2023-04-24T08:25:03;3.55;;;1.80;;
72569;SDS011;60594;50.204;8.844;2023-04-24T08:27:33;3.78;;;1.88;;
72569;SDS011;60594;50.204;8.844;2023-04-24T08:30:00;4.00;;;1.80;;
72569;SDS011;60594;50.204;8.844;2023-04-24T08:32:26;4.55;;;2.40;;
72569;SDS011;60594;50.204;8.844;2023-04-24T08:34:56;4.25;;;3.00;;
72569;SDS011;60594;50.204;8.844;2023-04-24T08:37:26;3.08;;;1.63;;
72569;SDS011;60594;50.204;8.844;2023-04-24T08:39:53;4.65;;;2.03;;
72569;SDS011;60594;50.204;8.844;2023-04-24T08:42:20;5.93;;;2.10;;
72569;SDS011;60594;50.204;8.844;2023-04-24T08:44:48;4.82;;;2.38;;
72569;SDS011;60594;50.204;8.844;2023-04-24T08:47:16;5.03;;;2.05;;
72569;SDS011;60594;50.204;8.844;2023-04-24T08:54:41;4.90;;;2.10;;
72569;SDS011;60594;50.204;8.844;2023-04-24T08:57:09;4.57;;;1.90;;
72569;SDS011;60594;50.204;8.844;2023-04-24T08:59:37;3.83;;;1.70;;
72569;SDS011;60594;50.204;8.844;2023-04-24T09:02:04;4.55;;;1.88;;
72569;SDS011;60594;50.204;8.844;2023-04-24T09:04:33;3.53;;;1.52;;
72569;SDS011;60594;50.204;8.844;2023-04-24T09:07:01;4.07;;;2.33;;
72569;SDS011;60594;50.204;8.844;2023-04-24T09:09:30;3.00;;;1.45;;
72569;SDS011;60594;50.204;8.844;2023-04-24T09:11:59;5.53;;;1.90;;
72569;SDS011;60594;50.204;8.844;2023-04-24T09:14:27;4.88;;;1.80;;
72569;SDS011;60594;50.204;8.844;2023-04-24T09:16:54;4.47;;;1.63;;
72569;SDS011;60594;50.204;8.844;2023-04-24T09:19:20;3.30;;;1.42;;
72569;SDS011;60594;50.204;8.844;2023-04-24T09:21:48;4.00;;;2.03;;
72569;SDS011;60594;50.204;8.844;2023-04-24T09:24:19;5.35;;;1.73;;
72569;SDS011;60594;50.204;8.844;2023-04-24T09:29:25;3.72;;;1.65;;
72569;SDS011;60594;50.204;8.844;2023-04-24T09:31:51;3.35;;;1.33;;
72569;SDS011;60594;50.204;8.844;2023-04-24T09:34:22;3.67;;;2.35;;
72569;SDS011;60594;50.204;8.844;2023-04-24T09:36:53;3.80;;;1.65;;
72569;SDS011;60594;50.204;8.844;2023-04-24T09:39:20;4.20;;;1.80;;
72569;SDS011;60594;50.204;8.844;2023-04-24T09:41:53;3.78;;;1.55;;
72569;SDS011;60594;50.204;8.844;2023-04-24T09:44:24;3.85;;;1.95;;
72569;SDS011;60594;50.204;8.844;2023-04-24T09:46:53;4.82;;;2.67;;
72569;SDS011;60594;50.204;8.844;2023-04-24T09:49:22;4.10;;;2.30;;
72569;SDS011;60594;50.204;8.844;2023-04-24T09:52:06;3.10;;;1.40;;
72569;SDS011;60594;50.204;8.844;2023-04-24T09:54:34;4.28;;;1.73;;
72569;SDS011;60594;50.204;8.844;2023-04-24T09:57:02;4.25;;;1.80;;
72569;SDS011;60594;50.204;8.844;2023-04-24T09:59:29;4.40;;;1.90;;
72569;SDS011;60594;50.204;8.844;2023-04-24T10:01:56;6.65;;;1.90;;
72569;SDS011;60594;50.204;8.844;2023-04-24T10:04:27;4.30;;;1.95;;
72569;SDS011;60594;50.204;8.844;2023-04-24T10:06:55;4.15;;;1.52;;
72569;SDS011;60594;50.204;8.844;2023-04-24T10:09:24;4.13;;;1.80;;
72569;SDS011;60594;50.204;8.844;2023-04-24T10:11:53;3.80;;;1.90;;
72569;SDS011;60594;50.204;8.844;2023-04-24T10:14:21;3.78;;;1.85;;
72569;SDS011;60594;50.204;8.844;2023-04-24T10:16:49;3.70;;;1.80;;
72569;SDS011;60594;50.204;8.844;2023-04-24T10:19:19;3.72;;;2.03;;
72569;SDS011;60594;50.204;8.844;2023-04-24T10:21:46;4.18;;;1.77;;
72569;SDS011;60594;50.204;8.844;2023-04-24T10:24:14;3.45;;;1.60;;
72569;SDS011;60594;50.204;8.844;2023-04-24T10:26:42;3.88;;;1.67;;
72569;SDS011;60594;50.204;8.844;2023-04-24T10:29:13;4.25;;;2.13;;
72569;SDS011;60594;50.204;8.844;2023-04-24T10:31:41;4.20;;;1.98;;
72569;SDS011;60594;50.204;8.844;2023-04-24T10:34:09;2.53;;;1.13;;
72569;SDS011;60594;50.204;8.844;2023-04-24T10:36:37;3.53;;;1.70;;
72569;SDS011;60594;50.204;8.844;2023-04-24T10:39:07;4.00;;;1.73;;
72569;SDS011;60594;50.204;8.844;2023-04-24T10:41:37;3.78;;;1.80;;
72569;SDS011;60594;50.204;8.844;2023-04-24T10:44:08;3.65;;;1.63;;
72569;SDS011;60594;50.204;8.844;2023-04-24T10:46:44;4.25;;;1.40;;
72569;SDS011;60594;50.204;8.844;2023-04-24T10:49:13;4.20;;;1.80;;
72569;SDS011;60594;50.204;8.844;2023-04-24T10:57:27;3.50;;;1.55;;
72569;SDS011;60594;50.204;8.844;2023-04-24T11:02:42;2.88;;;1.50;;
72569;SDS011;60594;50.204;8.844;2023-04-24T11:05:15;4.90;;;1.80;;
72569;SDS011;60594;50.204;8.844;2023-04-24T11:10:47;5.55;;;1.88;;
72569;SDS011;60594;50.204;8.844;2023-04-24T11:13:22;5.00;;;2.33;;
72569;SDS011;60594;50.204;8.844;2023-04-24T11:18:42;4.15;;;1.77;;
72569;SDS011;60594;50.204;8.844;2023-04-24T11:21:17;5.15;;;2.17;;
72569;SDS011;60594;50.204;8.844;2023-04-24T11:23:44;4.35;;;2.13;;
72569;SDS011;60594;50.204;8.844;2023-04-24T11:26:19;4.07;;;1.42;;
72569;SDS011;60594;50.204;8.844;2023-04-24T11:28:49;3.85;;;1.77;;
72569;SDS011;60594;50.204;8.844;2023-04-24T11:34:07;3.53;;;1.63;;
72569;SDS011;60594;50.204;8.844;2023-04-24T11:36:39;4.20;;;1.90;;
72569;SDS011;60594;50.204;8.844;2023-04-24T11:39:10;3.72;;;1.42;;
72569;SDS011;60594;50.204;8.844;2023-04-24T11:41:37;3.50;;;1.50;;
72569;SDS011;60594;50.204;8.844;2023-04-24T11:44:08;2.38;;;1.05;;
72569;SDS011;60594;50.204;8.844;2023-04-24T11:46:41;2.75;;;1.05;;
72569;SDS011;60594;50.204;8.844;2023-04-24T11:49:07;2.63;;;1.20;;
72569;SDS011;60594;50.204;8.844;2023-04-24T11:51:34;3.35;;;1.42;;
72569;SDS011;60594;50.204;8.844;2023-04-24T11:54:00;2.42;;;1.10;;
72569;SDS011;60594;50.204;8.844;2023-04-24T11:56:27;3.20;;;1.40;;
72569;SDS011;60594;50.204;8.844;2023-04-24T11:58:54;3.25;;;1.30;;
72569;SDS011;60594;50.204;8.844;2023-04-24T12:01:21;2.33;;;1.10;;
72569;SDS011;60594;50.204;8.844;2023-04-24T12:03:48;2.13;;;0.90;;
72569;SDS011;60594;50.204;8.844;2023-04-24T12:06:17;2.45;;;0.93;;
72569;SDS011;60594;50.204;8.844;2023-04-24T12:08:45;2.22;;;0.95;;
72569;SDS011;60594;50.204;8.844;2023-04-24T12:11:14;2.67;;;1.05;;
72569;SDS011;60594;50.204;8.844;2023-04-24T12:13:43;3.03;;;1.25;;
72569;SDS011;60594;50.204;8.844;2023-04-24T12:16:11;2.95;;;1.20;;
72569;SDS011;60594;50.204;8.844;2023-04-24T12:18:41;3.88;;;1.45;;
72569;SDS011;60594;50.204;8.844;2023-04-24T12:23:44;2.97;;;2.05;;
72569;SDS011;60594;50.204;8.844;2023-04-24T12:26:14;2.85;;;1.17;;
72569;SDS011;60594;50.204;8.844;2023-04-24T12:28:45;3.33;;;2.03;;
72569;SDS011;60594;50.204;8.844;2023-04-24T12:31:13;2.28;;;1.00;;
72569;SDS011;60594;50.204;8.844;2023-04-24T12:33:40;2.20;;;1.08;;
72569;SDS011;60594;50.204;8.844;2023-04-24T12:36:07;2.67;;;1.13;;
72569;SDS011;60594;50.204;8.844;2023-04-24T12:38:36;3.17;;;1.48;;
72569;SDS011;60594;50.204;8.844;2023-04-24T12:41:11;2.88;;;1.30;;
72569;SDS011;60594;50.204;8.844;2023-04-24T12:43:50;2.97;;;1.20;;
72569;SDS011;60594;50.204;8.844;2023-04-24T12:46:23;4.05;;;1.40;;
72569;SDS011;60594;50.204;8.844;2023-04-24T12:48:49;2.88;;;1.10;;
72569;SDS011;60594;50.204;8.844;2023-04-24T12:51:16;4.00;;;1.58;;
72569;SDS011;60594;50.204;8.844;2023-04-24T12:53:44;3.83;;;1.30;;
72569;SDS011;60594;50.204;8.844;2023-04-24T12:56:13;3.25;;;1.52;;
72569;SDS011;60594;50.204;8.844;2023-04-24T12:58:40;3.20;;;1.48;;
72569;SDS011;60594;50.204;8.844;2023-04-24T13:01:07;3.55;;;1.60;;
72569;SDS011;60594;50.204;8.844;2023-04-24T13:03:34;3.70;;;1.40;;
72569;SDS011;60594;50.204;8.844;2023-04-24T13:06:00;3.78;;;1.58;;
72569;SDS011;60594;50.204;8.844;2023-04-24T13:08:27;5.00;;;2.00;;
72569;SDS011;60594;50.204;8.844;2023-04-24T13:10:54;4.45;;;1.70;;
72569;SDS011;60594;50.204;8.844;2023-04-24T13:13:20;4.10;;;1.67;;
72569;SDS011;60594;50.204;8.844;2023-04-24T13:15:47;3.67;;;1.75;;
72569;SDS011;60594;50.204;8.844;2023-04-24T13:18:13;3.85;;;1.63;;
72569;SDS011;60594;50.204;8.844;2023-04-24T13:20:41;3.40;;;1.60;;
72569;SDS011;60594;50.204;8.844;2023-04-24T13:23:07;3.88;;;1.85;;
72569;SDS011;60594;50.204;8.844;2023-04-24T13:25:35;4.80;;;1.60;;
72569;SDS011;60594;50.204;8.844;2023-04-24T13:28:03;4.18;;;1.77;;
72569;SDS011;60594;50.204;8.844;2023-04-24T13:30:31;4.15;;;2.00;;
72569;SDS011;60594;50.204;8.844;2023-04-24T13:32:59;3.45;;;1.65;;
72569;SDS011;60594;50.204;8.844;2023-04-24T13:35:25;4.35;;;2.10;;
72569;SDS011;60594;50.204;8.844;2023-04-24T13:37:53;4.45;;;2.10;;
72569;SDS011;60594;50.204;8.844;2023-04-24T13:40:20;3.78;;;1.80;;
72569;SDS011;60594;50.204;8.844;2023-04-24T13:42:46;4.40;;;2.22;;
72569;SDS011;60594;50.204;8.844;2023-04-24T13:45:13;5.10;;;2.08;;
72569;SDS011;60594;50.204;8.844;2023-04-24T13:47:40;5.70;;;2.28;;
72569;SDS011;60594;50.204;8.844;2023-04-24T13:50:08;5.63;;;2.10;;
72569;SDS011;60594;50.204;8.844;2023-04-24T13:52:35;5.25;;;2.53;;
72569;SDS011;60594;50.204;8.844;2023-04-24T13:55:02;5.22;;;2.25;;
72569;SDS011;60594;50.204;8.844;2023-04-24T13:57:30;4.80;;;2.15;;
72569;SDS011;60594;50.204;8.844;2023-04-24T13:59:57;3.33;;;1.70;;
72569;SDS011;60594;50.204;8.844;2023-04-24T14:02:33;4.53;;;1.80;;
72569;SDS011;60594;50.204;8.844;2023-04-24T14:05:00;4.18;;;1.98;;
72569;SDS011;60594;50.204;8.844;2023-04-24T14:07:26;4.10;;;2.08;;
72569;SDS011;60594;50.204;8.844;2023-04-24T14:09:54;5.50;;;2.30;;
72569;SDS011;60594;50.204;8.844;2023-04-24T14:12:22;5.50;;;2.83;;
72569;SDS011;60594;50.204;8.844;2023-04-24T14:14:49;8.25;;;3.00;;
72569;SDS011;60594;50.204;8.844;2023-04-24T14:17:15;7.00;;;3.00;;
72569;SDS011;60594;50.204;8.844;2023-04-24T14:19:43;7.50;;;3.00;;
72569;SDS011;60594;50.204;8.844;2023-04-24T14:22:09;6.18;;;2.90;;
72569;SDS011;60594;50.204;8.844;2023-04-24T14:24:36;4.55;;;2.20;;
72569;SDS011;60594;50.204;8.844;2023-04-24T14:27:02;6.47;;;2.45;;
72569;SDS011;60594;50.204;8.844;2023-04-24T14:29:29;6.18;;;2.45;;
72569;SDS011;60594;50.204;8.844;2023-04-24T14:31:55;5.68;;;2.55;;
72569;SDS011;60594;50.204;8.844;2023-04-24T14:34:23;3.85;;;2.20;;
72569;SDS011;60594;50.204;8.844;2023-04-24T14:36:49;6.00;;;2.17;;
72569;SDS011;60594;50.204;8.844;2023-04-24T14:39:17;3.65;;;1.70;;
72569;SDS011;60594;50.204;8.844;2023-04-24T14:41:47;4.65;;;2.17;;
72569;SDS011;60594;50.204;8.844;2023-04-24T14:44:14;5.75;;;2.30;;
72569;SDS011;60594;50.204;8.844;2023-04-24T14:46:41;6.05;;;2.30;;
72569;SDS011;60594;50.204;8.844;2023-04-24T14:49:09;4.90;;;2.30;;
72569;SDS011;60594;50.204;8.844;2023-04-24T14:51:36;5.13;;;2.40;;
72569;SDS011;60594;50.204;8.844;2023-04-24T14:54:03;3.80;;;2.22;;
72569;SDS011;60594;50.204;8.844;2023-04-24T14:56:29;5.53;;;2.17;;
72569;SDS011;60594;50.204;8.844;2023-04-24T14:58:56;5.47;;;2.60;;
72569;SDS011;60594;50.204;8.844;2023-04-24T15:01:23;4.82;;;2.50;;
72569;SDS011;60594;50.204;8.844;2023-04-24T15:03:50;6.65;;;2.53;;
72569;SDS011;60594;50.204;8.844;2023-04-24T15:06:16;6.63;;;3.55;;
72569;SDS011;60594;50.204;8.844;2023-04-24T15:08:44;5.47;;;2.80;;
72569;SDS011;60594;50.204;8.844;2023-04-24T15:11:10;5.15;;;2.58;;
72569;SDS011;60594;50.204;8.844;2023-04-24T15:13:37;3.95;;;2.10;;
72569;SDS011;60594;50.204;8.844;2023-04-24T15:16:03;4.47;;;2.30;;
72569;SDS011;60594;50.204;8.844;2023-04-24T15:18:31;6.22;;;2.72;;
72569;SDS011;60594;50.204;8.844;2023-04-24T15:20:58;4.53;;;2.42;;
72569;SDS011;60594;50.204;8.844;2023-04-24T15:23:25;5.43;;;2.53;;